Highbridge, New York
Current Conditions -  °F | °C
As of 7:51 AM on Sunday 23 Nov 2014 (Local Time) from KNYC Reporting Station
Overcast Overcast  
Wind Chill: 39°   Ceiling: 9500
Heat Index: 44°   Visibility: 10mi
Dew Point: 21°   Wind: 9mph
Humidity: 40%   Direction: 260°W
Pressure: 30.23"   Gusts: NA
Location:  40.8376°N, 73.9236°W
Report Text: KNYC 231251Z AUTO 26008KT 10SM BKN095 OVC120 07/M06 A3023 RMK AO2 SLP229 T00671061 $
Loading
Personal Weather Stations






























Interactive Weather Map New forecast layout! Learn more

10-Day Weather Forecast

Advertisements
Track Severe Weather on mobile